createdAt,value
2022-09-12T00:04:21.449Z,75.51
2022-09-12T00:09:24.072Z,76.08
2022-09-12T00:14:27.053Z,77.19
2022-09-12T00:19:30.589Z,77.37
2022-09-12T00:24:34.267Z,77.80
2022-09-12T00:29:36.816Z,78.10
2022-09-12T00:34:39.475Z,78.24
2022-09-12T00:39:42.174Z,78.28
2022-09-12T00:44:49.278Z,78.88
2022-09-12T00:50:08.158Z,79.24
2022-09-12T00:55:24.871Z,79.58
2022-09-12T01:00:28.492Z,79.58
2022-09-12T01:05:34.114Z,80.21
2022-09-12T01:10:38.985Z,80.83
2022-09-12T01:15:41.634Z,81.03
2022-09-12T01:21:24.885Z,81.44
2022-09-12T01:27:01.115Z,81.52
2022-09-12T01:32:18.691Z,81.39
2022-09-12T01:37:35.632Z,81.68
2022-09-12T01:43:17.800Z,82.52
2022-09-12T01:48:40.694Z,82.71
2022-09-12T01:53:51.340Z,82.42
2022-09-12T01:59:22.102Z,82.95
2022-09-12T02:04:34.073Z,82.99
2022-09-12T02:09:44.411Z,83.65
2022-09-12T02:14:58.677Z,83.62
2022-09-12T02:20:26.076Z,83.13
2022-09-12T02:25:43.409Z,82.72
2022-09-12T02:31:29.111Z,82.45
2022-09-12T02:36:46.771Z,82.46
2022-09-12T02:41:55.022Z,83.08
2022-09-12T02:47:13.212Z,82.67
2022-09-12T02:52:15.915Z,82.37
2022-09-12T02:57:22.886Z,83.10
2022-09-12T03:03:05.615Z,83.25
2022-09-12T03:08:31.310Z,82.89
2022-09-12T03:13:53.239Z,83.43
2022-09-12T03:19:01.795Z,83.61
2022-09-12T03:24:25.925Z,83.34
2022-09-12T03:29:31.028Z,83.65
2022-09-12T03:34:33.674Z,83.75
2022-09-12T03:39:36.235Z,84.09
2022-09-12T03:44:38.788Z,83.87
2022-09-12T03:49:41.774Z,84.28
2022-09-12T03:54:44.502Z,84.47
2022-09-12T03:59:49.694Z,83.80
2022-09-12T04:04:52.366Z,84.54
2022-09-12T04:09:56.358Z,84.54
2022-09-12T04:14:58.879Z,84.72
2022-09-12T04:20:01.981Z,84.90
2022-09-12T04:25:07.111Z,85.58
2022-09-12T04:30:10.657Z,85.61
2022-09-12T04:35:14.161Z,84.82
2022-09-12T04:40:17.182Z,84.49
2022-09-12T04:45:19.798Z,84.64
2022-09-12T04:50:22.725Z,84.55
2022-09-12T04:55:25.447Z,84.30
2022-09-12T05:00:29.152Z,84.19
2022-09-12T05:05:31.717Z,84.37
2022-09-12T05:10:34.408Z,84.38
2022-09-12T05:15:37.821Z,84.34
2022-09-12T05:20:40.427Z,84.03
2022-09-12T05:25:53.506Z,83.80
2022-09-12T05:31:09.200Z,83.41
2022-09-12T05:36:24.062Z,82.91
2022-09-12T05:41:30.960Z,82.74
2022-09-12T05:46:41.756Z,82.64
2022-09-12T05:51:45.930Z,82.04
2022-09-12T05:56:49.271Z,81.88
2022-09-12T06:01:52.509Z,81.36
2022-09-12T06:06:55.440Z,80.79
2022-09-12T06:11:58.883Z,80.84
2022-09-12T06:17:01.653Z,80.92
2022-09-12T06:22:04.673Z,80.18
2022-09-12T06:27:07.461Z,79.38
2022-09-12T06:32:11.706Z,78.67
2022-09-12T06:37:14.498Z,78.44
2022-09-12T06:42:17.290Z,78.25
2022-09-12T06:47:31.432Z,76.91
2022-09-12T06:52:34.050Z,76.07
2022-09-12T06:57:38.922Z,74.80
2022-09-12T07:02:41.875Z,73.62
2022-09-12T07:07:44.553Z,72.10
2022-09-12T07:12:48.722Z,71.33
2022-09-12T07:17:52.225Z,71.22
2022-09-12T07:22:54.850Z,70.56
2022-09-12T07:27:57.671Z,69.82
2022-09-12T07:33:00.266Z,69.41
2022-09-12T07:38:03.115Z,68.67
2022-09-12T07:43:06.106Z,68.25
2022-09-12T07:48:09.221Z,68.74
2022-09-12T07:53:11.810Z,68.48
2022-09-12T07:58:14.434Z,69.67
2022-09-12T08:03:17.806Z,68.95
2022-09-12T08:08:20.532Z,68.10
2022-09-12T08:13:24.666Z,67.91
2022-09-12T08:18:29.025Z,67.61
2022-09-12T08:23:31.846Z,66.88
2022-09-12T08:28:36.492Z,67.09
2022-09-12T08:33:39.240Z,66.87
2022-09-12T08:38:44.354Z,67.04
2022-09-12T08:43:57.027Z,66.44
2022-09-12T08:49:02.510Z,66.53
2022-09-12T08:54:19.035Z,66.09
2022-09-12T08:59:21.649Z,64.57
2022-09-12T09:04:41.754Z,63.22
2022-09-12T09:09:54.885Z,62.64
2022-09-12T09:15:38.250Z,61.09
2022-09-12T09:20:51.171Z,62.99
2022-09-12T09:26:01.911Z,62.39
2022-09-12T09:31:04.603Z,62.34
2022-09-12T09:36:26.716Z,61.93
2022-09-12T09:41:41.216Z,62.40
2022-09-12T09:46:43.886Z,61.62
2022-09-12T09:51:48.341Z,60.63
2022-09-12T09:56:51.230Z,58.94
2022-09-12T10:02:02.189Z,57.41
2022-09-12T10:07:06.006Z,56.77
2022-09-12T10:12:28.629Z,54.82
2022-09-12T10:17:42.465Z,55.47
2022-09-12T10:22:47.841Z,54.54
2022-09-12T10:27:59.098Z,54.11
2022-09-12T10:33:12.378Z,53.82
2022-09-12T10:38:33.101Z,54.18
2022-09-12T10:43:37.903Z,54.52
2022-09-12T10:48:40.579Z,55.54
2022-09-12T10:53:46.711Z,55.84
2022-09-12T10:59:27.001Z,54.79
2022-09-12T11:04:34.285Z,54.23
2022-09-12T11:09:58.779Z,53.81
2022-09-12T11:15:31.093Z,53.30
2022-09-12T11:20:59.109Z,51.76
2022-09-12T11:26:20.316Z,52.02
2022-09-12T11:31:25.887Z,52.03
2022-09-12T11:36:37.660Z,51.62
2022-09-12T11:41:48.473Z,50.59
2022-09-12T11:46:52.048Z,49.67
2022-09-12T11:52:13.191Z,49.45
2022-09-12T11:57:28.373Z,49.56
2022-09-12T12:02:40.162Z,49.08
2022-09-12T12:07:45.839Z,48.04
2022-09-12T12:12:49.645Z,49.22
2022-09-12T12:18:29.022Z,49.07
2022-09-12T12:23:35.200Z,48.28
2022-09-12T12:28:50.479Z,47.42
2022-09-12T12:33:55.856Z,47.81
2022-09-12T12:39:00.213Z,48.46
2022-09-12T12:44:41.245Z,50.55
2022-09-12T12:49:52.202Z,51.03
2022-09-12T12:55:00.350Z,51.23
2022-09-12T13:00:29.960Z,51.41
2022-09-12T13:05:43.257Z,51.80
2022-09-12T13:10:50.011Z,51.13
2022-09-12T13:15:53.255Z,49.99
2022-09-12T13:21:17.690Z,49.44
2022-09-12T13:26:28.090Z,50.01
2022-09-12T13:31:31.073Z,48.54
2022-09-12T13:36:53.304Z,49.16
2022-09-12T13:41:56.274Z,50.07
2022-09-12T13:47:03.570Z,51.35
2022-09-12T13:52:09.641Z,51.00
2022-09-12T13:57:33.194Z,51.32
2022-09-12T14:02:37.170Z,51.52
2022-09-12T14:07:46.629Z,51.76
2022-09-12T14:12:50.908Z,52.29
2022-09-12T14:17:57.786Z,52.61
2022-09-12T14:23:17.053Z,52.65
2022-09-12T14:28:23.621Z,53.13
2022-09-12T14:33:26.559Z,52.96
2022-09-12T14:38:36.878Z,53.94
2022-09-12T14:43:52.777Z,54.06
2022-09-12T14:49:01.761Z,54.44
2022-09-12T14:54:04.647Z,54.45
2022-09-12T14:59:37.474Z,54.83
2022-09-12T15:04:42.239Z,54.87
2022-09-12T15:09:47.311Z,54.82
2022-09-12T15:14:50.047Z,54.86
2022-09-12T15:19:52.618Z,55.32
2022-09-12T15:24:57.601Z,56.18
2022-09-12T15:30:00.329Z,56.56
2022-09-12T15:40:21.131Z,57.54
2022-09-12T15:45:27.939Z,57.96
2022-09-12T15:50:31.038Z,58.47
2022-09-12T15:55:34.050Z,58.79
2022-09-12T16:00:36.727Z,59.50
2022-09-12T16:05:39.269Z,59.39
2022-09-12T16:10:43.631Z,59.43
2022-09-12T16:15:46.334Z,59.77
2022-09-12T16:20:53.831Z,59.45
2022-09-12T16:26:02.113Z,59.66
2022-09-12T16:31:06.864Z,60.18
2022-09-12T16:36:13.155Z,60.36
2022-09-12T16:41:17.095Z,60.13
2022-09-12T16:46:24.925Z,60.21
2022-09-12T16:51:36.023Z,60.20
2022-09-12T16:56:39.030Z,60.16
2022-09-12T17:01:41.823Z,60.40
2022-09-12T17:06:45.217Z,60.31
2022-09-12T17:11:49.715Z,60.45
2022-09-12T17:16:52.570Z,60.33
2022-09-12T17:21:56.231Z,60.09
2022-09-12T17:26:59.474Z,59.95
2022-09-12T17:32:02.283Z,59.93
2022-09-12T17:37:06.049Z,59.69
2022-09-12T17:42:08.782Z,59.67
2022-09-12T17:47:11.625Z,59.21
2022-09-12T17:52:14.257Z,59.36
2022-09-12T17:57:16.895Z,58.83
2022-09-12T18:02:19.691Z,59.33
2022-09-12T18:07:22.296Z,58.70
2022-09-12T18:12:25.205Z,59.13
2022-09-12T18:17:27.777Z,58.87
2022-09-12T18:22:30.300Z,58.90
2022-09-12T18:27:32.897Z,58.73
2022-09-12T18:32:35.426Z,59.07
2022-09-12T18:37:40.421Z,58.83
2022-09-12T18:42:42.940Z,58.93
2022-09-12T18:47:45.530Z,58.91
2022-09-12T18:52:48.099Z,59.15
2022-09-12T18:57:50.753Z,58.75
2022-09-12T19:02:53.614Z,59.14
2022-09-12T19:07:56.189Z,58.95
2022-09-12T19:12:59.118Z,59.20
2022-09-12T19:18:01.678Z,59.47
2022-09-12T19:23:04.464Z,59.44
2022-09-12T19:28:07.295Z,59.46
2022-09-12T19:33:09.871Z,59.77
2022-09-12T19:38:13.396Z,59.39
2022-09-12T19:43:15.932Z,60.00
2022-09-12T19:48:19.756Z,59.77
2022-09-12T19:53:22.277Z,59.96
2022-09-12T19:58:25.050Z,60.41
2022-09-12T20:03:27.697Z,60.84
2022-09-12T20:08:30.299Z,61.09
2022-09-12T20:13:33.121Z,61.36
2022-09-12T20:18:36.343Z,60.85
2022-09-12T20:23:40.907Z,60.81
2022-09-12T20:28:43.545Z,61.04
2022-09-12T20:33:51.122Z,61.47
2022-09-12T20:39:02.837Z,61.76
2022-09-12T20:44:05.633Z,61.59
2022-09-12T20:49:11.162Z,61.98
2022-09-12T20:54:13.858Z,61.64
2022-09-12T20:59:16.521Z,61.87
2022-09-12T21:04:19.282Z,62.00
2022-09-12T21:09:21.930Z,62.51
2022-09-12T21:14:24.516Z,62.40
2022-09-12T21:19:27.071Z,62.10
2022-09-12T21:24:30.377Z,62.17
2022-09-12T21:29:33.023Z,62.23
2022-09-12T21:34:35.806Z,62.37
2022-09-12T21:39:38.377Z,63.02
2022-09-12T21:44:41.043Z,63.39
2022-09-12T21:49:43.723Z,63.39
2022-09-12T21:54:46.273Z,64.03
2022-09-12T21:59:48.854Z,64.48
2022-09-12T22:04:51.422Z,65.60
2022-09-12T22:09:54.059Z,65.47
2022-09-12T22:14:57.155Z,65.73
2022-09-12T22:19:59.899Z,66.19
2022-09-12T22:25:02.454Z,66.27
2022-09-12T22:30:07.700Z,67.04
2022-09-12T22:35:10.305Z,66.88
2022-09-12T22:40:12.991Z,66.38
2022-09-12T22:45:15.821Z,66.67
2022-09-12T22:50:18.388Z,67.23
2022-09-12T22:55:21.006Z,66.95
2022-09-12T23:00:23.880Z,66.87
2022-09-12T23:05:26.543Z,67.23
2022-09-12T23:10:29.149Z,68.01
2022-09-12T23:15:32.648Z,68.00
2022-09-12T23:20:35.209Z,68.03
2022-09-12T23:25:37.918Z,68.13
2022-09-12T23:30:40.585Z,68.57
2022-09-12T23:35:44.298Z,68.93
2022-09-12T23:40:46.826Z,68.54
2022-09-12T23:45:49.578Z,69.03
2022-09-12T23:50:52.446Z,69.21
2022-09-12T23:55:55.111Z,69.14
